Time;durP1;ratioP1;P1;durP2;ratioP2;P2;SDS_P1;SDS_P2;PMS_P1;PMS_P2;Temp;Humidity;BMP_temperature;BMP_pressure;BME280_temperature;BME280_humidity;BME280_pressure;Samples;Min_cycle;Max_cycle;Signal;HPM_P1;HPM_P2
2023/10/14 00:00:46;;;;;;;3.60;3.07;;;20.10;55.00;;;;;;5096568;27;21293;-72
2023/10/14 00:03:27;;;;;;;3.53;2.17;;;20.10;54.50;;;;;;5097050;27;20652;-71
2023/10/14 00:05:55;;;;;;;5.47;3.30;;;20.20;55.70;;;;;;5096257;27;20619;-72
2023/10/14 00:08:27;;;;;;;4.20;3.57;;;20.10;56.40;;;;;;5095674;27;20626;-71
2023/10/14 00:10:55;;;;;;;3.50;2.70;;;19.90;56.10;;;;;;5097352;27;20663;-71
2023/10/14 00:13:23;;;;;;;1.97;1.70;;;20.00;57.50;;;;;;5095435;27;20727;-71
2023/10/14 00:15:51;;;;;;;3.33;3.03;;;19.90;56.40;;;;;;5095843;27;21086;-71
2023/10/14 00:18:19;;;;;;;3.17;2.87;;;20.00;57.60;;;;;;5096904;27;20754;-71
2023/10/14 00:20:46;;;;;;;7.27;3.40;;;20.10;59.10;;;;;;5095943;27;20632;-71
2023/10/14 00:23:12;;;;;;;4.73;2.97;;;20.10;60.40;;;;;;5095998;27;20655;-72
2023/10/14 00:25:39;;;;;;;6.70;3.37;;;20.20;62.10;;;;;;5096282;27;20629;-71
2023/10/14 00:28:12;;;;;;;3.07;2.57;;;20.20;62.90;;;;;;5095332;27;20979;-71
2023/10/14 00:30:39;;;;;;;4.73;3.93;;;20.20;63.90;;;;;;5096799;27;20743;-71
2023/10/14 00:33:06;;;;;;;5.60;3.90;;;20.20;64.50;;;;;;5095649;27;20628;-71
2023/10/14 00:35:39;;;;;;;4.00;3.13;;;20.30;64.40;;;;;;5095359;27;20619;-71
2023/10/14 00:38:08;;;;;;;4.13;3.50;;;20.20;64.80;;;;;;5095634;27;21062;-71
2023/10/14 00:40:37;;;;;;;3.57;3.27;;;20.30;65.50;;;;;;5096134;27;20630;-72
2023/10/14 00:43:05;;;;;;;6.23;3.40;;;20.30;65.00;;;;;;5095982;27;21302;-71
2023/10/14 00:45:32;;;;;;;3.63;3.20;;;20.20;64.50;;;;;;5096023;27;20646;-71
2023/10/14 00:48:00;;;;;;;8.73;3.37;;;20.20;64.90;;;;;;5094868;27;20624;-71
2023/10/14 00:50:33;;;;;;;4.33;3.27;;;20.20;64.70;;;;;;5095944;27;20627;-71
2023/10/14 00:53:05;;;;;;;3.87;3.13;;;20.20;66.50;;;;;;5094042;27;20999;-71
2023/10/14 00:55:46;;;;;;;3.50;3.20;;;20.20;68.50;;;;;;5096123;27;21115;-71
2023/10/14 00:58:20;;;;;;;4.57;4.17;;;20.20;70.20;;;;;;5095851;27;20613;-71
2023/10/14 01:00:57;;;;;;;6.17;4.37;;;20.20;71.40;;;;;;5095153;27;20754;-71
2023/10/14 01:03:25;;;;;;;4.03;3.43;;;20.10;73.50;;;;;;5095145;27;20696;-71
2023/10/14 01:05:54;;;;;;;4.47;4.03;;;20.10;75.70;;;;;;5094572;27;20634;-71
2023/10/14 01:08:25;;;;;;;5.67;4.57;;;20.10;77.70;;;;;;5094830;27;20655;-71
2023/10/14 01:10:52;;;;;;;6.80;4.10;;;20.00;79.40;;;;;;5094285;27;21174;-71
2023/10/14 01:13:22;;;;;;;8.20;3.77;;;19.90;80.90;;;;;;5094380;27;20604;-71
2023/10/14 01:15:58;;;;;;;3.90;3.53;;;19.90;81.60;;;;;;5094197;27;20625;-72
2023/10/14 01:18:26;;;;;;;6.37;3.93;;;19.80;82.00;;;;;;5095676;27;20742;-71
2023/10/14 01:20:57;;;;;;;5.60;4.57;;;19.70;82.20;;;;;;5093890;27;20684;-71
2023/10/14 01:23:27;;;;;;;6.00;4.70;;;19.70;82.90;;;;;;5095447;27;21295;-71
2023/10/14 01:25:57;;;;;;;8.60;4.23;;;19.60;83.30;;;;;;5095174;27;20623;-72
2023/10/14 01:28:29;;;;;;;7.23;4.17;;;19.70;83.20;;;;;;5094546;27;20642;-71
2023/10/14 01:31:23;;;;;;;4.50;4.00;;;19.60;84.20;;;;;;5095222;27;20731;-71
2023/10/14 01:33:50;;;;;;;4.20;3.80;;;19.50;84.50;;;;;;5093371;27;20745;-71
2023/10/14 01:36:20;;;;;;;4.20;3.80;;;19.40;85.10;;;;;;5094449;27;21236;-71
2023/10/14 01:38:58;;;;;;;4.20;3.80;;;19.40;85.40;;;;;;5094742;27;21164;-71
2023/10/14 01:41:30;;;;;;;4.53;4.00;;;19.30;85.50;;;;;;5095718;27;20711;-71
2023/10/14 01:44:02;;;;;;;5.53;4.20;;;19.40;85.80;;;;;;5094294;27;21080;-71
2023/10/14 01:46:30;;;;;;;4.87;4.37;;;19.30;85.90;;;;;;5093395;27;20636;-72
2023/10/14 01:49:08;;;;;;;5.30;4.60;;;19.40;86.20;;;;;;5093869;27;20631;-71
2023/10/14 01:51:35;;;;;;;6.33;4.20;;;19.30;86.70;;;;;;5094393;27;20616;-71
2023/10/14 01:54:04;;;;;;;7.77;5.17;;;19.20;86.80;;;;;;5093756;27;20632;-71
2023/10/14 01:56:31;;;;;;;4.97;4.40;;;19.10;87.20;;;;;;5092880;27;21535;-71
2023/10/14 01:58:58;;;;;;;4.93;4.40;;;19.20;87.10;;;;;;5094190;27;20651;-71
2023/10/14 02:01:25;;;;;;;7.50;4.20;;;19.20;87.10;;;;;;5094451;27;20982;-71
2023/10/14 02:03:54;;;;;;;5.63;4.77;;;19.30;87.00;;;;;;5093623;27;20659;-71
2023/10/14 02:06:26;;;;;;;4.40;4.00;;;19.20;87.10;;;;;;5093561;27;20628;-71
2023/10/14 02:08:58;;;;;;;5.00;4.50;;;19.10;87.10;;;;;;5093402;27;20730;-71
2023/10/14 02:11:33;;;;;;;5.67;4.00;;;19.10;88.00;;;;;;5094315;27;20640;-71
2023/10/14 02:14:06;;;;;;;4.83;4.33;;;19.10;87.90;;;;;;5093859;27;21003;-71
2023/10/14 02:16:40;;;;;;;5.17;4.37;;;19.20;87.90;;;;;;5093782;27;20628;-71
2023/10/14 02:19:18;;;;;;;4.77;4.10;;;19.10;87.90;;;;;;5093357;27;20615;-71
2023/10/14 02:21:57;;;;;;;4.77;4.00;;;19.10;88.50;;;;;;5094264;27;20994;-71
2023/10/14 02:24:27;;;;;;;10.00;5.00;;;19.00;89.00;;;;;;5091602;27;20721;-71
2023/10/14 02:27:06;;;;;;;5.40;4.10;;;19.10;88.30;;;;;;5093860;27;20621;-71
2023/10/14 02:29:34;;;;;;;4.60;4.20;;;19.00;88.60;;;;;;5091917;27;20634;-71
2023/10/14 02:32:02;;;;;;;5.57;4.67;;;19.10;88.70;;;;;;5092720;27;20631;-71
2023/10/14 02:34:30;;;;;;;7.57;4.23;;;19.00;88.40;;;;;;5093202;27;20795;-72
2023/10/14 02:37:01;;;;;;;4.33;3.63;;;19.00;88.70;;;;;;5093473;27;20642;-71
2023/10/14 02:39:28;;;;;;;4.97;4.20;;;19.10;88.50;;;;;;5093074;27;20736;-71
2023/10/14 02:42:07;;;;;;;6.03;4.53;;;19.20;88.50;;;;;;5093836;27;20621;-71
2023/10/14 02:44:44;;;;;;;5.10;4.60;;;19.20;88.20;;;;;;5092371;27;20651;-71
2023/10/14 02:47:13;;;;;;;5.80;4.60;;;19.20;89.10;;;;;;5094031;27;20718;-71
2023/10/14 02:49:40;;;;;;;7.33;4.97;;;19.20;88.40;;;;;;5093630;27;21234;-71
2023/10/14 02:52:11;;;;;;;9.83;4.67;;;19.20;88.70;;;;;;5093101;27;20643;-71
2023/10/14 02:54:41;;;;;;;5.47;4.50;;;19.20;88.50;;;;;;5093321;27;21322;-71
2023/10/14 02:57:23;;;;;;;5.00;3.63;;;19.30;88.40;;;;;;5092190;27;20638;-71
2023/10/14 02:59:51;;;;;;;4.90;3.93;;;19.30;88.20;;;;;;5093035;27;20635;-71
2023/10/14 03:02:25;;;;;;;5.47;4.37;;;19.30;88.10;;;;;;5093699;27;20981;-71
2023/10/14 03:05:08;;;;;;;5.10;4.17;;;19.20;88.50;;;;;;5091927;27;20820;-71
2023/10/14 03:07:44;;;;;;;11.93;4.67;;;19.20;88.20;;;;;;5093079;27;20632;-71
2023/10/14 03:10:12;;;;;;;5.77;4.50;;;19.20;88.40;;;;;;5092494;27;20718;-71
2023/10/14 03:12:41;;;;;;;6.07;4.30;;;19.20;88.30;;;;;;5092874;27;20620;-71
2023/10/14 03:15:19;;;;;;;5.40;4.70;;;19.20;88.40;;;;;;5093066;27;20766;-71
2023/10/14 03:17:52;;;;;;;5.97;4.20;;;19.20;88.50;;;;;;5092065;27;21217;-71
2023/10/14 03:23:04;;;;;;;6.53;4.67;;;19.10;88.30;;;;;;5092494;27;21215;-71
2023/10/14 03:25:35;;;;;;;4.50;3.80;;;19.20;88.20;;;;;;5093154;28;21127;-71
2023/10/14 03:28:12;;;;;;;7.03;5.20;;;19.10;88.70;;;;;;5091811;27;21090;-71
2023/10/14 03:30:44;;;;;;;5.27;4.27;;;19.10;88.80;;;;;;5094026;27;21252;-71
2023/10/14 03:33:11;;;;;;;5.33;4.20;;;19.10;88.70;;;;;;5092182;27;20624;-71
2023/10/14 03:35:41;;;;;;;7.77;4.70;;;19.10;88.70;;;;;;5093236;27;20631;-71
2023/10/14 03:38:25;;;;;;;4.97;4.00;;;19.10;88.70;;;;;;5093185;28;20782;-71
2023/10/14 03:41:01;;;;;;;4.10;3.80;;;19.10;88.90;;;;;;5091727;28;20638;-71
2023/10/14 03:43:30;;;;;;;7.27;3.97;;;19.10;89.20;;;;;;5093039;28;20682;-71
2023/10/14 03:46:03;;;;;;;5.47;4.23;;;19.00;89.40;;;;;;5092044;28;20631;-71
2023/10/14 03:48:35;;;;;;;4.97;4.30;;;19.00;89.60;;;;;;5092200;28;20631;-71
2023/10/14 03:51:03;;;;;;;5.63;3.90;;;19.00;89.50;;;;;;5092529;28;20960;-71
2023/10/14 03:53:32;;;;;;;5.30;4.87;;;19.00;89.20;;;;;;5093197;28;21028;-71
2023/10/14 03:56:00;;;;;;;5.03;4.53;;;19.00;89.00;;;;;;5092075;28;20622;-72
2023/10/14 03:58:29;;;;;;;6.27;5.00;;;19.10;89.00;;;;;;5092148;28;20730;-71
2023/10/14 04:00:57;;;;;;;6.30;4.60;;;19.10;89.50;;;;;;5092485;28;20631;-71
2023/10/14 04:03:39;;;;;;;6.20;4.53;;;19.10;89.60;;;;;;5092255;28;20773;-72
2023/10/14 04:06:08;;;;;;;7.27;4.23;;;19.10;89.70;;;;;;5091823;28;20631;-72
2023/10/14 04:08:40;;;;;;;7.23;5.00;;;19.10;90.30;;;;;;5092733;28;20631;-72
2023/10/14 04:11:12;;;;;;;5.63;5.00;;;19.10;90.20;;;;;;5093048;28;20632;-71
2023/10/14 04:13:51;;;;;;;5.67;4.80;;;19.00;90.20;;;;;;5091693;28;20991;-72
2023/10/14 04:16:27;;;;;;;5.27;4.47;;;19.10;90.30;;;;;;5091508;27;20684;-71
2023/10/14 04:18:59;;;;;;;6.70;5.70;;;19.10;90.20;;;;;;5092458;28;20632;-71
2023/10/14 04:21:35;;;;;;;6.63;4.73;;;19.00;90.40;;;;;;5092297;28;20621;-72
2023/10/14 04:24:13;;;;;;;5.20;3.83;;;19.00;90.40;;;;;;5092170;28;21381;-71
2023/10/14 04:26:41;;;;;;;8.83;4.50;;;19.00;90.60;;;;;;5091819;28;20628;-71
2023/10/14 04:29:21;;;;;;;5.87;5.03;;;19.00;90.70;;;;;;5092024;28;20633;-71
2023/10/14 04:31:55;;;;;;;8.60;4.47;;;19.00;90.80;;;;;;5092319;28;20641;-71
2023/10/14 04:34:23;;;;;;;6.00;4.77;;;19.00;90.70;;;;;;5091554;28;20734;-71
2023/10/14 04:36:56;;;;;;;5.73;3.90;;;18.90;90.70;;;;;;5092329;28;20623;-71
2023/10/14 04:39:42;;;;;;;8.27;4.57;;;18.90;90.70;;;;;;5093122;28;20642;-72
2023/10/14 04:42:35;;;;;;;4.87;4.43;;;18.90;90.50;;;;;;5095738;27;20639;-71
2023/10/14 04:45:06;;;;;;;10.47;4.00;;;18.80;90.60;;;;;;5096182;27;20759;-71
2023/10/14 04:47:40;;;;;;;8.13;3.47;;;18.80;90.80;;;;;;5095305;27;20630;-71
2023/10/14 04:50:14;;;;;;;4.30;3.87;;;18.80;91.30;;;;;;5096349;27;20631;-71
2023/10/14 04:52:42;;;;;;;6.80;4.17;;;18.60;92.20;;;;;;5096199;27;20955;-71
2023/10/14 04:55:25;;;;;;;4.43;3.80;;;18.50;92.40;;;;;;5096816;27;20631;-71
2023/10/14 04:58:06;;;;;;;6.53;4.40;;;18.50;92.60;;;;;;5095125;27;20639;-71
2023/10/14 05:00:41;;;;;;;5.47;4.97;;;18.40;92.60;;;;;;5097065;27;20620;-71
2023/10/14 05:03:09;;;;;;;5.20;4.70;;;18.30;92.70;;;;;;5095830;27;20972;-71
2023/10/14 05:05:38;;;;;;;5.97;5.13;;;18.20;92.30;;;;;;5095007;27;20662;-71
2023/10/14 05:08:07;;;;;;;6.33;4.90;;;18.30;92.00;;;;;;5094783;27;20701;-71
2023/10/14 05:10:34;;;;;;;4.07;3.70;;;18.40;91.10;;;;;;5095765;27;20635;-71
2023/10/14 05:13:01;;;;;;;7.10;5.13;;;18.40;90.80;;;;;;5095208;27;20640;-71
2023/10/14 05:15:28;;;;;;;4.37;3.97;;;18.40;90.40;;;;;;5095257;27;21216;-71
2023/10/14 05:18:00;;;;;;;5.70;4.37;;;18.40;90.10;;;;;;5094918;27;21246;-71
2023/10/14 05:20:47;;;;;;;4.90;3.40;;;18.50;89.70;;;;;;5096094;27;21228;-73
2023/10/14 05:23:19;;;;;;;4.90;3.70;;;18.50;89.30;;;;;;5095431;27;20628;-73
2023/10/14 05:25:48;;;;;;;7.37;4.40;;;18.50;88.80;;;;;;5095231;27;20773;-73
2023/10/14 05:28:16;;;;;;;4.70;3.30;;;18.50;88.40;;;;;;5095121;27;20633;-73
2023/10/14 05:30:48;;;;;;;6.90;4.07;;;18.50;87.40;;;;;;5096042;27;20633;-73
2023/10/14 05:33:16;;;;;;;4.40;3.30;;;18.50;87.50;;;;;;5094269;27;20633;-73
2023/10/14 05:35:44;;;;;;;5.40;3.67;;;18.50;87.20;;;;;;5095109;27;20619;-73
2023/10/14 05:38:11;;;;;;;3.60;3.00;;;18.50;86.70;;;;;;5093922;27;20639;-73
2023/10/14 05:40:40;;;;;;;4.50;3.13;;;18.50;86.60;;;;;;5095150;27;20631;-73
2023/10/14 05:43:07;;;;;;;5.20;3.27;;;18.60;87.20;;;;;;5094494;27;20651;-73
2023/10/14 05:45:35;;;;;;;3.33;3.03;;;18.60;86.50;;;;;;5094361;27;20658;-73
2023/10/14 05:48:04;;;;;;;7.40;3.90;;;18.60;86.60;;;;;;5093723;27;20656;-73
2023/10/14 05:50:32;;;;;;;4.20;3.20;;;18.60;86.60;;;;;;5095089;27;21415;-73
2023/10/14 05:53:00;;;;;;;4.83;3.87;;;18.50;87.90;;;;;;5094684;27;21172;-73
2023/10/14 05:55:29;;;;;;;5.80;4.37;;;18.50;87.90;;;;;;5094871;27;21213;-73
2023/10/14 05:58:00;;;;;;;5.50;4.30;;;18.50;88.00;;;;;;5094676;27;21041;-73
2023/10/14 06:00:27;;;;;;;8.53;4.23;;;18.50;90.70;;;;;;5093971;27;20632;-73
2023/10/14 06:02:55;;;;;;;5.90;4.40;;;18.50;91.30;;;;;;5093017;27;20624;-73
2023/10/14 06:05:23;;;;;;;5.10;3.60;;;18.50;91.90;;;;;;5093740;27;21828;-74
2023/10/14 06:07:59;;;;;;;3.83;3.40;;;18.60;92.10;;;;;;5092989;27;21074;-74
2023/10/14 06:10:29;;;;;;;4.77;4.00;;;18.50;92.10;;;;;;5094734;27;20771;-74
2023/10/14 06:12:57;;;;;;;9.60;4.73;;;18.40;91.80;;;;;;5094209;27;22188;-77
2023/10/14 06:15:25;;;;;;;3.57;3.27;;;18.40;91.90;;;;;;5094079;27;20623;-74
2023/10/14 06:17:54;;;;;;;5.20;3.67;;;18.30;92.20;;;;;;5093334;27;20641;-74
2023/10/14 06:20:22;;;;;;;7.70;4.87;;;18.30;92.30;;;;;;5094492;27;20778;-75
2023/10/14 06:22:49;;;;;;;4.53;4.13;;;18.30;92.40;;;;;;5093840;27;20632;-74
2023/10/14 06:25:17;;;;;;;4.67;4.13;;;18.40;92.50;;;;;;5092782;27;20662;-74
2023/10/14 06:27:46;;;;;;;5.13;3.90;;;18.40;92.30;;;;;;5093362;27;20642;-75
2023/10/14 06:30:20;;;;;;;6.87;4.97;;;18.30;92.30;;;;;;5093423;27;20632;-74
2023/10/14 06:32:53;;;;;;;3.57;3.13;;;18.30;92.80;;;;;;5094123;27;20623;-73
2023/10/14 06:35:20;;;;;;;5.03;3.43;;;18.20;92.70;;;;;;5093432;27;20656;-73
2023/10/14 06:37:48;;;;;;;4.23;3.63;;;18.20;93.10;;;;;;5092879;27;20621;-73
2023/10/14 06:40:19;;;;;;;5.00;3.90;;;18.20;93.20;;;;;;5094126;27;20722;-77
2023/10/14 06:42:49;;;;;;;4.90;3.73;;;18.20;93.50;;;;;;5093892;27;20641;-77
2023/10/14 06:45:19;;;;;;;4.10;3.60;;;18.10;93.20;;;;;;5093662;27;20656;-75
2023/10/14 06:47:49;;;;;;;7.17;4.47;;;18.10;93.80;;;;;;5092342;27;20627;-75
2023/10/14 06:50:20;;;;;;;11.67;4.03;;;18.10;94.50;;;;;;5092530;27;20659;-75
2023/10/14 06:52:48;;;;;;;8.13;3.97;;;18.10;94.60;;;;;;5093868;27;20636;-75
2023/10/14 06:55:21;;;;;;;5.13;3.70;;;18.20;94.50;;;;;;5093317;27;20640;-75
2023/10/14 06:57:51;;;;;;;7.73;4.10;;;18.10;95.10;;;;;;5092422;27;20658;-75
2023/10/14 07:00:25;;;;;;;12.73;5.40;;;17.90;95.30;;;;;;5092545;27;20741;-75
2023/10/14 07:02:53;;;;;;;7.83;3.97;;;17.90;95.60;;;;;;5092265;27;20638;-75
2023/10/14 07:05:20;;;;;;;4.77;3.43;;;17.90;95.40;;;;;;5092129;27;20939;-74
2023/10/14 07:07:47;;;;;;;3.97;3.67;;;17.90;95.40;;;;;;5093185;27;20619;-77
2023/10/14 07:10:17;;;;;;;3.70;3.03;;;17.90;95.50;;;;;;5093608;27;20630;-76
2023/10/14 07:12:46;;;;;;;5.23;4.37;;;17.80;95.50;;;;;;5094332;27;20609;-77
2023/10/14 07:15:13;;;;;;;6.63;5.33;;;17.80;95.60;;;;;;5092672;27;20642;-77
2023/10/14 07:17:42;;;;;;;9.83;5.20;;;17.70;95.70;;;;;;5093895;27;21192;-76
2023/10/14 07:20:11;;;;;;;6.57;3.63;;;17.80;96.20;;;;;;5092970;27;21176;-77
2023/10/14 07:22:42;;;;;;;7.50;4.90;;;17.80;95.70;;;;;;5092752;27;21690;-77
2023/10/14 07:25:09;;;;;;;4.77;3.63;;;17.90;95.90;;;;;;5093100;27;20662;-78
2023/10/14 07:27:37;;;;;;;6.40;5.10;;;18.10;95.20;;;;;;5092613;27;20623;-77
2023/10/14 07:30:13;;;;;;;5.30;3.50;;;18.20;95.10;;;;;;5093215;27;20626;-77
2023/10/14 07:32:42;;;;;;;5.47;4.40;;;18.40;94.30;;;;;;5093105;27;21279;-77
2023/10/14 07:35:11;;;;;;;6.00;4.17;;;18.50;93.90;;;;;;5092984;27;20667;-76
2023/10/14 07:37:39;;;;;;;5.23;3.33;;;18.70;93.70;;;;;;5092686;28;20623;-76
2023/10/14 07:40:11;;;;;;;4.50;3.13;;;18.70;92.40;;;;;;5091981;27;21187;-77
2023/10/14 07:42:38;;;;;;;4.87;4.30;;;18.80;91.50;;;;;;5092865;27;20642;-76
2023/10/14 07:45:10;;;;;;;3.47;3.13;;;19.00;91.20;;;;;;5092216;28;20666;-78
2023/10/14 07:47:38;;;;;;;3.77;3.30;;;19.10;90.30;;;;;;5091699;28;20624;-75
2023/10/14 07:50:09;;;;;;;3.80;2.57;;;19.20;89.70;;;;;;5092937;28;20612;-78
2023/10/14 07:52:36;;;;;;;3.37;3.07;;;19.20;89.00;;;;;;5092636;28;20753;-80
2023/10/14 07:55:03;;;;;;;3.80;3.30;;;19.10;90.10;;;;;;5094302;28;20624;-83
2023/10/14 07:57:30;;;;;;;4.43;4.00;;;19.10;90.50;;;;;;5092878;28;20745;-83
2023/10/14 07:59:59;;;;;;;3.17;2.90;;;19.10;90.70;;;;;;5091186;28;20670;-83
2023/10/14 08:02:27;;;;;;;4.20;3.50;;;19.10;90.70;;;;;;5092595;28;20631;-82
2023/10/14 08:04:54;;;;;;;4.10;3.70;;;18.90;91.30;;;;;;5092939;28;21267;-84
2023/10/14 08:07:21;;;;;;;6.97;3.40;;;18.90;91.90;;;;;;5091619;28;20639;-80
2023/10/14 08:09:48;;;;;;;3.20;2.40;;;18.80;92.20;;;;;;5093933;28;20620;-83
2023/10/14 08:12:15;;;;;;;6.07;2.50;;;18.80;92.20;;;;;;5092438;28;20659;-77
2023/10/14 08:14:44;;;;;;;2.87;2.67;;;18.70;91.40;;;;;;5093362;27;20620;-74
2023/10/14 08:17:12;;;;;;;2.80;2.10;;;18.60;91.60;;;;;;5096327;27;20650;-74
2023/10/14 08:19:40;;;;;;;2.87;2.00;;;18.60;92.60;;;;;;5096996;27;20632;-75
2023/10/14 08:22:08;;;;;;;2.23;1.87;;;18.50;92.80;;;;;;5096032;27;21106;-73
2023/10/14 08:24:35;;;;;;;5.27;1.80;;;18.20;93.30;;;;;;5095829;27;20734;-74
2023/10/14 08:27:04;;;;;;;2.20;1.67;;;18.10;93.40;;;;;;5096572;27;20629;-75
2023/10/14 08:29:33;;;;;;;1.43;1.33;;;18.20;93.80;;;;;;5097193;27;20630;-75
2023/10/14 08:32:00;;;;;;;4.63;1.63;;;18.20;93.90;;;;;;5096907;27;20635;-74
2023/10/14 08:34:26;;;;;;;1.80;1.50;;;18.10;93.20;;;;;;5096308;27;20631;-75
2023/10/14 08:36:56;;;;;;;1.80;1.50;;;18.10;93.20;;;;;;5096503;27;20974;-76
2023/10/14 08:39:23;;;;;;;5.03;3.23;;;18.00;92.70;;;;;;5095560;27;20637;-75
2023/10/14 08:41:54;;;;;;;2.90;2.70;;;18.10;93.00;;;;;;5096379;27;20631;-75
2023/10/14 08:44:27;;;;;;;4.70;2.03;;;18.20;93.30;;;;;;5095855;27;20645;-75
2023/10/14 08:46:55;;;;;;;4.50;1.83;;;18.30;92.70;;;;;;5096167;27;20632;-75
2023/10/14 08:49:26;;;;;;;2.57;1.90;;;18.50;92.90;;;;;;5096913;27;21263;-76
2023/10/14 08:52:09;;;;;;;2.73;2.03;;;18.70;92.90;;;;;;5096236;27;20705;-76
2023/10/14 08:54:38;;;;;;;14.53;7.80;;;18.90;92.80;;;;;;5095362;27;20962;-77
2023/10/14 08:57:09;;;;;;;6.13;4.77;;;19.20;93.70;;;;;;5093665;27;20635;-76
2023/10/14 08:59:36;;;;;;;3.53;2.83;;;19.50;93.80;;;;;;5095820;27;20718;-75
2023/10/14 09:02:03;;;;;;;6.33;3.00;;;19.50;93.70;;;;;;5094123;27;20628;-76
2023/10/14 09:04:35;;;;;;;5.23;3.70;;;19.70;93.40;;;;;;5094428;27;20630;-76
2023/10/14 09:07:04;;;;;;;4.47;3.10;;;19.80;93.10;;;;;;5095835;27;20627;-76
2023/10/14 09:09:31;;;;;;;2.83;2.50;;;19.70;93.50;;;;;;5095629;27;20620;-77
2023/10/14 09:12:11;;;;;;;3.17;2.87;;;19.90;93.30;;;;;;5095166;27;20625;-75
2023/10/14 09:14:42;;;;;;;2.97;2.73;;;20.00;92.20;;;;;;5095602;27;20624;-76
2023/10/14 09:17:09;;;;;;;4.03;2.73;;;20.00;91.90;;;;;;5093909;27;20635;-77
2023/10/14 09:19:50;;;;;;;7.73;2.73;;;19.80;91.70;;;;;;5094161;27;20626;-76
2023/10/14 09:22:23;;;;;;;5.13;3.73;;;19.80;92.50;;;;;;5094248;27;20738;-76
2023/10/14 09:24:50;;;;;;;2.10;1.90;;;19.80;92.90;;;;;;5093981;27;20764;-75
2023/10/14 09:27:20;;;;;;;1.40;0.97;;;19.50;91.70;;;;;;5090893;27;20631;-76
2023/10/14 09:29:47;;;;;;;0.50;0.40;;;18.20;95.30;;;;;;5089743;27;20631;-75
2023/10/14 09:32:21;;;;;;;0.80;0.80;;;17.30;96.80;;;;;;5094373;27;20635;-75
2023/10/14 09:34:50;;;;;;;0.80;0.60;;;16.40;98.30;;;;;;5094249;27;20655;-77
2023/10/14 09:37:21;;;;;;;1.33;0.50;;;16.40;99.90;;;;;;5093524;27;21211;-76
2023/10/14 09:39:57;;;;;;;0.97;0.53;;;16.10;99.90;;;;;;5094584;27;21108;-76
2023/10/14 09:42:29;;;;;;;1.07;0.60;;;15.90;99.90;;;;;;5094230;27;20635;-75
2023/10/14 09:45:09;;;;;;;1.00;0.60;;;15.70;99.90;;;;;;5094007;27;20635;-75
2023/10/14 09:47:37;;;;;;;1.67;1.47;;;15.60;99.90;;;;;;5092801;27;20623;-75
2023/10/14 09:50:13;;;;;;;2.80;1.70;;;15.60;99.90;;;;;;5093516;27;20624;-75
2023/10/14 09:52:43;;;;;;;1.07;0.97;;;15.50;99.90;;;;;;5093141;27;20632;-75
2023/10/14 09:55:15;;;;;;;2.30;1.17;;;15.50;99.90;;;;;;5093179;27;20953;-76
2023/10/14 09:57:44;;;;;;;1.60;1.20;;;15.60;99.90;;;;;;5093562;27;20768;-75
2023/10/14 10:00:16;;;;;;;2.37;2.17;;;15.50;99.90;;;;;;5093593;27;20633;-75
2023/10/14 10:02:47;;;;;;;1.63;1.00;;;15.40;99.90;;;;;;5093728;27;20632;-75
2023/10/14 10:05:20;;;;;;;2.07;1.33;;;15.40;99.90;;;;;;5093418;27;20655;-75
2023/10/14 10:07:57;;;;;;;0.70;0.70;;;15.50;99.90;;;;;;5093341;27;20624;-76
2023/10/14 10:10:30;;;;;;;1.13;0.63;;;15.50;99.90;;;;;;5092745;27;21426;-76
2023/10/14 10:12:58;;;;;;;1.50;0.70;;;15.40;99.90;;;;;;5094652;27;20637;-75
2023/10/14 10:15:26;;;;;;;0.60;0.50;;;15.50;99.90;;;;;;5092734;27;20962;-75
2023/10/14 10:18:04;;;;;;;2.30;1.27;;;15.60;99.90;;;;;;5093881;27;21191;-75
2023/10/14 10:20:35;;;;;;;0.60;0.60;;;15.50;99.90;;;;;;5095613;27;20644;-75
2023/10/14 10:23:03;;;;;;;0.87;0.60;;;15.40;99.90;;;;;;5093583;27;21197;-75
2023/10/14 10:25:51;;;;;;;0.50;0.40;;;15.50;99.90;;;;;;5092917;27;20662;-75
2023/10/14 10:28:38;;;;;;;0.40;0.40;;;15.60;99.90;;;;;;5093094;27;21199;-75
2023/10/14 10:31:07;;;;;;;0.50;0.40;;;15.60;99.90;;;;;;5093149;27;20692;-76
2023/10/14 10:33:52;;;;;;;2.40;1.30;;;15.80;99.90;;;;;;5092949;27;20689;-76
2023/10/14 10:36:25;;;;;;;1.13;0.63;;;15.80;99.90;;;;;;5091615;27;20619;-75
2023/10/14 10:38:54;;;;;;;1.20;1.10;;;15.80;99.90;;;;;;5092249;27;20649;-75
2023/10/14 10:41:25;;;;;;;0.93;0.80;;;15.90;99.90;;;;;;5092910;27;20632;-74
2023/10/14 10:43:53;;;;;;;0.40;0.40;;;15.90;99.90;;;;;;5090847;27;21226;-74
2023/10/14 10:46:38;;;;;;;1.50;1.03;;;15.80;99.90;;;;;;5092267;27;20652;-75
2023/10/14 10:49:06;;;;;;;1.33;1.23;;;15.70;99.90;;;;;;5091300;27;20632;-74
2023/10/14 10:51:34;;;;;;;2.87;0.97;;;15.70;99.90;;;;;;5092698;27;21019;-73
2023/10/14 10:54:02;;;;;;;6.63;2.80;;;15.70;99.90;;;;;;5092196;27;20632;-76
2023/10/14 10:56:33;;;;;;;1.23;0.87;;;15.60;99.90;;;;;;5092100;27;20624;-75
2023/10/14 10:59:04;;;;;;;0.80;0.80;;;15.60;99.90;;;;;;5092697;27;20623;-75
2023/10/14 11:01:32;;;;;;;0.87;0.87;;;15.50;99.90;;;;;;5093370;27;20619;-75
2023/10/14 11:04:00;;;;;;;0.50;0.50;;;15.50;99.90;;;;;;5094916;27;20726;-74
2023/10/14 11:06:29;;;;;;;1.60;0.60;;;15.40;99.90;;;;;;5093612;27;20660;-74
2023/10/14 11:08:58;;;;;;;0.90;0.63;;;15.20;99.90;;;;;;5093502;27;20633;-74
2023/10/14 11:11:31;;;;;;;1.53;0.67;;;15.30;99.90;;;;;;5092925;27;20622;-74
2023/10/14 11:14:00;;;;;;;0.80;0.80;;;15.30;99.90;;;;;;5092433;27;20637;-74
2023/10/14 11:16:28;;;;;;;0.60;0.60;;;15.40;99.90;;;;;;5092488;27;20730;-74
2023/10/14 11:18:55;;;;;;;0.90;0.87;;;15.10;99.90;;;;;;5092380;27;20639;-74
2023/10/14 11:21:22;;;;;;;0.80;0.80;;;15.10;99.90;;;;;;5093480;27;21170;-73
2023/10/14 11:23:52;;;;;;;14.53;1.20;;;15.00;99.90;;;;;;5093670;27;21208;-78
2023/10/14 11:26:20;;;;;;;1.00;0.77;;;14.90;99.90;;;;;;5090532;27;20927;-78
2023/10/14 11:28:53;;;;;;;3.50;2.10;;;15.00;99.90;;;;;;5093738;27;20222;-77
2023/10/14 11:31:24;;;;;;;1.37;1.00;;;14.90;99.90;;;;;;5090828;27;21092;-74
2023/10/14 11:33:55;;;;;;;1.90;0.80;;;14.80;99.90;;;;;;5092950;27;20654;-73
2023/10/14 11:36:26;;;;;;;1.90;0.97;;;14.80;99.90;;;;;;5091512;27;20627;-73
2023/10/14 11:38:52;;;;;;;0.60;0.60;;;14.80;99.90;;;;;;5091254;27;20787;-74
2023/10/14 11:41:21;;;;;;;0.30;0.30;;;14.80;99.90;;;;;;5091931;28;20622;-74
2023/10/14 11:43:50;;;;;;;0.73;0.40;;;14.70;99.90;;;;;;5090831;28;20635;-74
2023/10/14 11:46:18;;;;;;;0.90;0.50;;;14.80;99.90;;;;;;5091938;28;20744;-75
2023/10/14 11:48:46;;;;;;;1.10;0.40;;;15.00;99.90;;;;;;5094516;27;20627;-79
2023/10/14 11:51:19;;;;;;;0.70;0.57;;;15.10;99.90;;;;;;5098343;27;21407;-76
2023/10/14 11:53:50;;;;;;;0.57;0.57;;;14.70;99.90;;;;;;5096828;27;20633;-76
2023/10/14 11:56:25;;;;;;;0.50;0.50;;;14.80;99.90;;;;;;5097769;27;20609;-76
2023/10/14 11:58:53;;;;;;;1.17;1.07;;;14.70;99.90;;;;;;5098372;27;20635;-77
2023/10/14 12:01:23;;;;;;;0.40;0.40;;;14.60;99.90;;;;;;5098943;27;20619;-77
2023/10/14 12:03:50;;;;;;;0.73;0.60;;;14.60;99.90;;;;;;5098234;27;21164;-77
2023/10/14 12:06:17;;;;;;;0.53;0.53;;;14.60;99.90;;;;;;5098631;27;20659;-75
2023/10/14 12:08:45;;;;;;;0.50;0.50;;;14.50;99.90;;;;;;5099235;27;20627;-75
2023/10/14 12:11:13;;;;;;;0.60;0.60;;;14.40;99.90;;;;;;5098421;27;21220;-77
2023/10/14 12:13:50;;;;;;;0.70;0.70;;;14.50;99.90;;;;;;5098782;27;20751;-77
2023/10/14 12:16:23;;;;;;;0.40;0.40;;;14.50;99.90;;;;;;5098465;27;20673;-77
2023/10/14 12:18:54;;;;;;;0.30;0.20;;;14.50;99.90;;;;;;5097777;27;20629;-76
2023/10/14 12:21:22;;;;;;;0.47;0.43;;;14.50;99.90;;;;;;5097877;27;20632;-77
2023/10/14 12:23:49;;;;;;;1.37;0.50;;;14.50;99.90;;;;;;5098060;27;20636;-78
2023/10/14 12:26:16;;;;;;;2.50;0.53;;;14.50;99.90;;;;;;5097870;27;20654;-77
2023/10/14 12:28:43;;;;;;;0.63;0.63;;;14.50;99.90;;;;;;5098001;27;20639;-76
2023/10/14 12:31:12;;;;;;;0.77;0.77;;;14.30;99.90;;;;;;5099091;27;21344;-77
2023/10/14 12:33:41;;;;;;;2.40;0.90;;;14.40;99.90;;;;;;5097741;27;20648;-77
2023/10/14 12:36:10;;;;;;;0.50;0.50;;;14.50;99.90;;;;;;5098394;27;21397;-77
2023/10/14 12:38:38;;;;;;;0.40;0.40;;;14.50;99.90;;;;;;5098404;27;20626;-77
2023/10/14 12:41:07;;;;;;;0.63;0.57;;;14.50;99.90;;;;;;5098796;27;20630;-77
2023/10/14 12:43:36;;;;;;;0.40;0.30;;;14.60;99.90;;;;;;5097793;27;20654;-77
2023/10/14 12:46:12;;;;;;;0.80;0.60;;;14.50;99.90;;;;;;5098458;27;21053;-77
2023/10/14 12:48:42;;;;;;;0.40;0.30;;;14.50;99.90;;;;;;5098418;27;21251;-77
2023/10/14 12:51:11;;;;;;;0.40;0.40;;;14.50;99.90;;;;;;5098726;27;20853;-77
2023/10/14 12:53:38;;;;;;;0.50;0.50;;;14.30;99.90;;;;;;5097578;27;20621;-77
2023/10/14 12:56:08;;;;;;;0.80;0.50;;;14.30;99.90;;;;;;5097860;27;20626;-77
2023/10/14 12:58:35;;;;;;;0.83;0.70;;;14.40;99.90;;;;;;5097778;27;20638;-79
2023/10/14 13:01:13;;;;;;;0.90;0.60;;;14.40;99.90;;;;;;5096021;27;20623;-76
2023/10/14 13:03:43;;;;;;;1.63;1.53;;;14.20;99.90;;;;;;5094833;27;20652;-75
2023/10/14 13:06:13;;;;;;;1.50;0.90;;;14.30;99.90;;;;;;5094483;27;21222;-76